sensor_id;sensor_type;location;lat;lon;timestamp;pressure;altitude;pressure_sealevel;temperature;humidity
28456;BME280;15682;56.742;38.866;2023-07-31T00:00:20;98620.0;;;14.8;98.3
28456;BME280;15682;56.742;38.866;2023-07-31T00:02:20;98620.0;;;14.8;98.3
28456;BME280;15682;56.742;38.866;2023-07-31T00:04:20;98620.0;;;14.8;98.3
28456;BME280;15682;56.742;38.866;2023-07-31T00:06:20;98620.0;;;14.8;98.3
28456;BME280;15682;56.742;38.866;2023-07-31T00:08:21;98620.0;;;14.8;98.3
28456;BME280;15682;56.742;38.866;2023-07-31T00:10:21;98620.0;;;14.8;98.8
28456;BME280;15682;56.742;38.866;2023-07-31T00:12:21;98620.0;;;14.7;98.3
28456;BME280;15682;56.742;38.866;2023-07-31T00:14:21;98620.0;;;14.7;98.3
28456;BME280;15682;56.742;38.866;2023-07-31T00:16:22;98620.0;;;14.7;99.1
28456;BME280;15682;56.742;38.866;2023-07-31T00:18:22;98620.0;;;14.7;99.1
28456;BME280;15682;56.742;38.866;2023-07-31T00:20:23;98620.0;;;14.6;99.1
28456;BME280;15682;56.742;38.866;2023-07-31T00:22:22;98620.0;;;14.6;99.1
28456;BME280;15682;56.742;38.866;2023-07-31T00:24:23;98620.0;;;14.6;99.8
28456;BME280;15682;56.742;38.866;2023-07-31T00:26:23;98620.0;;;14.5;99.8
28456;BME280;15682;56.742;38.866;2023-07-31T00:28:23;98630.0;;;14.5;99.8
28456;BME280;15682;56.742;38.866;2023-07-31T00:30:23;98630.0;;;14.5;100.0
28456;BME280;15682;56.742;38.866;2023-07-31T00:32:24;98630.0;;;14.5;100.0
28456;BME280;15682;56.742;38.866;2023-07-31T00:34:24;98630.0;;;14.5;100.0
28456;BME280;15682;56.742;38.866;2023-07-31T00:36:24;98630.0;;;14.5;100.0
28456;BME280;15682;56.742;38.866;2023-07-31T00:38:25;98630.0;;;14.5;100.0
28456;BME280;15682;56.742;38.866;2023-07-31T00:40:25;98630.0;;;14.5;98.9
28456;BME280;15682;56.742;38.866;2023-07-31T00:42:25;98630.0;;;14.6;98.9
28456;BME280;15682;56.742;38.866;2023-07-31T00:44:26;98640.0;;;14.6;98.4
28456;BME280;15682;56.742;38.866;2023-07-31T00:46:26;98650.0;;;14.6;98.4
28456;BME280;15682;56.742;38.866;2023-07-31T00:48:26;98650.0;;;14.6;98.4
28456;BME280;15682;56.742;38.866;2023-07-31T00:50:27;98650.0;;;14.6;99.0
28456;BME280;15682;56.742;38.866;2023-07-31T00:52:26;98650.0;;;14.6;99.0
28456;BME280;15682;56.742;38.866;2023-07-31T00:54:26;98650.0;;;14.6;99.0
28456;BME280;15682;56.742;38.866;2023-07-31T00:56:28;98650.0;;;14.6;99.0
28456;BME280;15682;56.742;38.866;2023-07-31T00:58:27;98650.0;;;14.6;99.0
28456;BME280;15682;56.742;38.866;2023-07-31T01:00:27;98650.0;;;14.6;99.9
28456;BME280;15682;56.742;38.866;2023-07-31T01:02:28;98650.0;;;14.7;99.3
28456;BME280;15682;56.742;38.866;2023-07-31T01:04:28;98650.0;;;14.7;99.3
28456;BME280;15682;56.742;38.866;2023-07-31T01:06:33;98650.0;;;14.7;99.3
28456;BME280;15682;56.742;38.866;2023-07-31T01:08:35;98650.0;;;14.7;98.7
28456;BME280;15682;56.742;38.866;2023-07-31T01:10:33;98650.0;;;14.7;98.4
28456;BME280;15682;56.742;38.866;2023-07-31T01:12:30;98650.0;;;14.7;99.0
28456;BME280;15682;56.742;38.866;2023-07-31T01:14:29;98660.0;;;14.7;99.1
28456;BME280;15682;56.742;38.866;2023-07-31T01:16:29;98660.0;;;14.7;98.5
28456;BME280;15682;56.742;38.866;2023-07-31T01:18:30;98660.0;;;14.7;99.2
28456;BME280;15682;56.742;38.866;2023-07-31T01:20:30;98660.0;;;14.7;98.7
28456;BME280;15682;56.742;38.866;2023-07-31T01:22:42;98660.0;;;14.6;98.7
28456;BME280;15682;56.742;38.866;2023-07-31T01:24:36;98660.0;;;14.6;98.7
28456;BME280;15682;56.742;38.866;2023-07-31T01:26:33;98660.0;;;14.6;98.8
28456;BME280;15682;56.742;38.866;2023-07-31T01:28:38;98660.0;;;14.6;99.5
28456;BME280;15682;56.742;38.866;2023-07-31T01:30:33;98660.0;;;14.6;99.6
28456;BME280;15682;56.742;38.866;2023-07-31T01:32:32;98660.0;;;14.6;99.4
28456;BME280;15682;56.742;38.866;2023-07-31T01:34:32;98660.0;;;14.6;99.4
28456;BME280;15682;56.742;38.866;2023-07-31T01:36:32;98660.0;;;14.6;99.4
28456;BME280;15682;56.742;38.866;2023-07-31T01:38:32;98670.0;;;14.6;99.4
28456;BME280;15682;56.742;38.866;2023-07-31T01:40:32;98670.0;;;14.5;99.7
28456;BME280;15682;56.742;38.866;2023-07-31T01:42:33;98670.0;;;14.5;99.7
28456;BME280;15682;56.742;38.866;2023-07-31T01:44:34;98670.0;;;14.5;99.7
28456;BME280;15682;56.742;38.866;2023-07-31T01:46:33;98670.0;;;14.5;99.7
28456;BME280;15682;56.742;38.866;2023-07-31T01:48:33;98670.0;;;14.5;99.7
28456;BME280;15682;56.742;38.866;2023-07-31T01:50:34;98670.0;;;14.5;99.6
28456;BME280;15682;56.742;38.866;2023-07-31T01:52:34;98670.0;;;14.6;99.6
28456;BME280;15682;56.742;38.866;2023-07-31T01:54:34;98670.0;;;14.6;99.6
28456;BME280;15682;56.742;38.866;2023-07-31T01:56:34;98670.0;;;14.6;99.6
28456;BME280;15682;56.742;38.866;2023-07-31T01:58:35;98670.0;;;14.6;99.6
28456;BME280;15682;56.742;38.866;2023-07-31T02:00:35;98670.0;;;14.6;99.0
28456;BME280;15682;56.742;38.866;2023-07-31T02:02:35;98670.0;;;14.6;99.4
28456;BME280;15682;56.742;38.866;2023-07-31T02:04:35;98670.0;;;14.6;99.4
28456;BME280;15682;56.742;38.866;2023-07-31T02:06:36;98670.0;;;14.6;99.9
28456;BME280;15682;56.742;38.866;2023-07-31T02:08:36;98670.0;;;14.6;99.2
28456;BME280;15682;56.742;38.866;2023-07-31T02:10:36;98670.0;;;14.6;100.0
28456;BME280;15682;56.742;38.866;2023-07-31T02:12:36;98670.0;;;14.7;99.5
28456;BME280;15682;56.742;38.866;2023-07-31T02:14:37;98670.0;;;14.7;99.5
28456;BME280;15682;56.742;38.866;2023-07-31T02:16:37;98670.0;;;14.7;99.5
28456;BME280;15682;56.742;38.866;2023-07-31T02:18:37;98670.0;;;14.7;99.5
28456;BME280;15682;56.742;38.866;2023-07-31T02:20:37;98670.0;;;14.7;98.9
28456;BME280;15682;56.742;38.866;2023-07-31T02:22:38;98670.0;;;14.8;98.9
28456;BME280;15682;56.742;38.866;2023-07-31T02:24:38;98670.0;;;14.8;98.3
28456;BME280;15682;56.742;38.866;2023-07-31T02:26:38;98670.0;;;14.8;98.3
28456;BME280;15682;56.742;38.866;2023-07-31T02:28:39;98670.0;;;14.9;98.8
28456;BME280;15682;56.742;38.866;2023-07-31T02:30:39;98670.0;;;14.9;98.6
28456;BME280;15682;56.742;38.866;2023-07-31T02:32:39;98660.0;;;14.9;98.6
28456;BME280;15682;56.742;38.866;2023-07-31T02:34:39;98660.0;;;15.0;98.6
28456;BME280;15682;56.742;38.866;2023-07-31T02:36:40;98660.0;;;15.0;98.6
28456;BME280;15682;56.742;38.866;2023-07-31T02:38:40;98650.0;;;15.0;98.6
28456;BME280;15682;56.742;38.866;2023-07-31T02:40:40;98640.0;;;15.2;98.4
28456;BME280;15682;56.742;38.866;2023-07-31T02:42:40;98640.0;;;15.2;97.3
28456;BME280;15682;56.742;38.866;2023-07-31T02:44:41;98640.0;;;15.6;97.3
28456;BME280;15682;56.742;38.866;2023-07-31T02:46:41;98630.0;;;15.7;95.7
28456;BME280;15682;56.742;38.866;2023-07-31T02:48:41;98630.0;;;15.9;94.9
28456;BME280;15682;56.742;38.866;2023-07-31T02:50:41;98630.0;;;16.0;93.9
28456;BME280;15682;56.742;38.866;2023-07-31T02:52:42;98630.0;;;16.0;92.7
28456;BME280;15682;56.742;38.866;2023-07-31T02:54:42;98630.0;;;16.1;92.7
28456;BME280;15682;56.742;38.866;2023-07-31T02:56:42;98630.0;;;16.1;92.1
28456;BME280;15682;56.742;38.866;2023-07-31T02:58:43;98630.0;;;16.1;92.1
28456;BME280;15682;56.742;38.866;2023-07-31T03:00:43;98630.0;;;16.1;91.6
28456;BME280;15682;56.742;38.866;2023-07-31T03:02:43;98630.0;;;16.2;92.5
28456;BME280;15682;56.742;38.866;2023-07-31T03:04:44;98630.0;;;16.2;92.5
28456;BME280;15682;56.742;38.866;2023-07-31T03:06:44;98630.0;;;16.2;93.1
28456;BME280;15682;56.742;38.866;2023-07-31T03:08:44;98630.0;;;16.2;93.1
28456;BME280;15682;56.742;38.866;2023-07-31T03:10:44;98630.0;;;16.3;94.3
28456;BME280;15682;56.742;38.866;2023-07-31T03:12:46;98630.0;;;16.1;95.9
28456;BME280;15682;56.742;38.866;2023-07-31T03:14:45;98630.0;;;16.0;95.4
28456;BME280;15682;56.742;38.866;2023-07-31T03:16:45;98640.0;;;15.8;95.9
28456;BME280;15682;56.742;38.866;2023-07-31T03:18:46;98640.0;;;15.8;95.1
28456;BME280;15682;56.742;38.866;2023-07-31T03:20:46;98640.0;;;15.7;95.8
28456;BME280;15682;56.742;38.866;2023-07-31T03:22:46;98640.0;;;15.7;95.2
28456;BME280;15682;56.742;38.866;2023-07-31T03:24:47;98640.0;;;15.7;95.2
28456;BME280;15682;56.742;38.866;2023-07-31T03:26:47;98640.0;;;15.7;95.5
28456;BME280;15682;56.742;38.866;2023-07-31T03:28:47;98640.0;;;15.7;95.5
28456;BME280;15682;56.742;38.866;2023-07-31T03:30:48;98640.0;;;15.7;94.8
28456;BME280;15682;56.742;38.866;2023-07-31T03:32:48;98640.0;;;15.7;94.8
28456;BME280;15682;56.742;38.866;2023-07-31T03:34:49;98640.0;;;15.9;94.8
28456;BME280;15682;56.742;38.866;2023-07-31T03:36:48;98640.0;;;15.9;94.8
28456;BME280;15682;56.742;38.866;2023-07-31T03:38:49;98640.0;;;16.0;94.3
28456;BME280;15682;56.742;38.866;2023-07-31T03:40:49;98640.0;;;16.0;94.3
28456;BME280;15682;56.742;38.866;2023-07-31T03:42:49;98640.0;;;16.1;93.7
28456;BME280;15682;56.742;38.866;2023-07-31T03:44:50;98640.0;;;16.1;92.1
28456;BME280;15682;56.742;38.866;2023-07-31T03:46:50;98640.0;;;16.3;86.9
28456;BME280;15682;56.742;38.866;2023-07-31T03:48:50;98640.0;;;16.3;83.8
28456;BME280;15682;56.742;38.866;2023-07-31T03:50:51;98640.0;;;16.5;83.8
28456;BME280;15682;56.742;38.866;2023-07-31T03:52:52;98640.0;;;16.5;83.8
28456;BME280;15682;56.742;38.866;2023-07-31T03:54:52;98650.0;;;16.4;83.8
28456;BME280;15682;56.742;38.866;2023-07-31T03:56:52;98650.0;;;16.6;83.3
28456;BME280;15682;56.742;38.866;2023-07-31T03:58:52;98650.0;;;16.7;82.8
28456;BME280;15682;56.742;38.866;2023-07-31T04:00:53;98660.0;;;16.9;82.3
28456;BME280;15682;56.742;38.866;2023-07-31T04:02:53;98660.0;;;16.8;82.8
28456;BME280;15682;56.742;38.866;2023-07-31T04:04:54;98660.0;;;16.8;82.8
28456;BME280;15682;56.742;38.866;2023-07-31T04:06:55;98660.0;;;16.9;82.8
28456;BME280;15682;56.742;38.866;2023-07-31T04:08:55;98660.0;;;16.9;82.8
28456;BME280;15682;56.742;38.866;2023-07-31T04:10:56;98660.0;;;17.1;81.7
28456;BME280;15682;56.742;38.866;2023-07-31T04:12:56;98660.0;;;17.2;81.7
28456;BME280;15682;56.742;38.866;2023-07-31T04:14:57;98670.0;;;17.2;81.1
28456;BME280;15682;56.742;38.866;2023-07-31T04:16:58;98670.0;;;17.2;81.1
28456;BME280;15682;56.742;38.866;2023-07-31T04:18:59;98670.0;;;17.2;81.1
28456;BME280;15682;56.742;38.866;2023-07-31T04:20:59;98670.0;;;17.2;81.1
28456;BME280;15682;56.742;38.866;2023-07-31T04:23:00;98670.0;;;17.2;80.9
28456;BME280;15682;56.742;38.866;2023-07-31T04:25:01;98670.0;;;17.3;80.9
28456;BME280;15682;56.742;38.866;2023-07-31T04:27:02;98670.0;;;17.3;80.9
28456;BME280;15682;56.742;38.866;2023-07-31T04:29:02;98670.0;;;17.3;82.0
28456;BME280;15682;56.742;38.866;2023-07-31T04:31:03;98670.0;;;17.3;82.0
28456;BME280;15682;56.742;38.866;2023-07-31T04:33:04;98670.0;;;17.3;81.8
28456;BME280;15682;56.742;38.866;2023-07-31T04:35:05;98670.0;;;17.4;81.6
28456;BME280;15682;56.742;38.866;2023-07-31T04:37:05;98670.0;;;17.6;80.2
28456;BME280;15682;56.742;38.866;2023-07-31T04:39:06;98670.0;;;17.7;79.2
28456;BME280;15682;56.742;38.866;2023-07-31T04:41:07;98680.0;;;17.4;79.2
28456;BME280;15682;56.742;38.866;2023-07-31T04:43:08;98680.0;;;17.4;80.2
28456;BME280;15682;56.742;38.866;2023-07-31T04:45:09;98680.0;;;17.6;80.2
28456;BME280;15682;56.742;38.866;2023-07-31T04:47:09;98680.0;;;17.6;79.6
28456;BME280;15682;56.742;38.866;2023-07-31T04:49:11;98680.0;;;17.7;79.6
28456;BME280;15682;56.742;38.866;2023-07-31T04:51:11;98680.0;;;17.7;79.8
28456;BME280;15682;56.742;38.866;2023-07-31T04:53:12;98680.0;;;17.8;79.8
28456;BME280;15682;56.742;38.866;2023-07-31T04:55:13;98680.0;;;17.9;79.8
28456;BME280;15682;56.742;38.866;2023-07-31T04:57:14;98680.0;;;17.9;79.8
28456;BME280;15682;56.742;38.866;2023-07-31T04:59:14;98680.0;;;17.9;78.9
28456;BME280;15682;56.742;38.866;2023-07-31T05:01:15;98680.0;;;18.0;79.1
28456;BME280;15682;56.742;38.866;2023-07-31T05:03:16;98680.0;;;18.0;79.8
28456;BME280;15682;56.742;38.866;2023-07-31T05:05:17;98680.0;;;18.0;79.3
28456;BME280;15682;56.742;38.866;2023-07-31T05:07:17;98680.0;;;18.1;79.3
28456;BME280;15682;56.742;38.866;2023-07-31T05:09:18;98680.0;;;18.1;79.3
28456;BME280;15682;56.742;38.866;2023-07-31T05:11:19;98680.0;;;18.2;79.0
28456;BME280;15682;56.742;38.866;2023-07-31T05:13:20;98690.0;;;18.4;78.4
28456;BME280;15682;56.742;38.866;2023-07-31T05:15:21;98690.0;;;18.4;78.4
28456;BME280;15682;56.742;38.866;2023-07-31T05:17:22;98690.0;;;18.4;78.4
28456;BME280;15682;56.742;38.866;2023-07-31T05:19:23;98690.0;;;18.2;78.9
28456;BME280;15682;56.742;38.866;2023-07-31T05:21:23;98690.0;;;18.2;78.5
28456;BME280;15682;56.742;38.866;2023-07-31T05:23:24;98690.0;;;18.5;78.8
28456;BME280;15682;56.742;38.866;2023-07-31T05:25:25;98690.0;;;18.5;78.8
28456;BME280;15682;56.742;38.866;2023-07-31T05:27:26;98690.0;;;18.6;78.8
28456;BME280;15682;56.742;38.866;2023-07-31T05:29:27;98690.0;;;18.7;78.8
28456;BME280;15682;56.742;38.866;2023-07-31T05:31:27;98690.0;;;18.7;77.8
28456;BME280;15682;56.742;38.866;2023-07-31T05:33:28;98690.0;;;18.9;77.2
28456;BME280;15682;56.742;38.866;2023-07-31T05:35:29;98690.0;;;19.0;77.2
28456;BME280;15682;56.742;38.866;2023-07-31T05:37:30;98690.0;;;19.0;77.2
28456;BME280;15682;56.742;38.866;2023-07-31T05:39:31;98690.0;;;19.1;77.2
28456;BME280;15682;56.742;38.866;2023-07-31T05:41:32;98690.0;;;19.3;77.3
28456;BME280;15682;56.742;38.866;2023-07-31T05:43:33;98690.0;;;19.5;75.9
28456;BME280;15682;56.742;38.866;2023-07-31T05:45:33;98690.0;;;19.4;75.9
28456;BME280;15682;56.742;38.866;2023-07-31T05:47:34;98690.0;;;19.5;76.5
28456;BME280;15682;56.742;38.866;2023-07-31T05:49:35;98690.0;;;19.5;75.7
28456;BME280;15682;56.742;38.866;2023-07-31T05:51:36;98690.0;;;19.5;75.4
28456;BME280;15682;56.742;38.866;2023-07-31T05:53:37;98690.0;;;19.5;75.4
28456;BME280;15682;56.742;38.866;2023-07-31T05:55:38;98690.0;;;19.8;75.4
28456;BME280;15682;56.742;38.866;2023-07-31T05:57:39;98690.0;;;19.8;73.9
28456;BME280;15682;56.742;38.866;2023-07-31T05:59:40;98690.0;;;19.8;74.5
28456;BME280;15682;56.742;38.866;2023-07-31T06:01:40;98690.0;;;19.8;74.6
28456;BME280;15682;56.742;38.866;2023-07-31T06:03:41;98700.0;;;19.8;74.6
28456;BME280;15682;56.742;38.866;2023-07-31T06:05:42;98700.0;;;19.7;73.8
28456;BME280;15682;56.742;38.866;2023-07-31T06:07:43;98700.0;;;19.7;73.8
28456;BME280;15682;56.742;38.866;2023-07-31T06:09:44;98700.0;;;19.9;73.8
28456;BME280;15682;56.742;38.866;2023-07-31T06:11:45;98700.0;;;19.9;73.8
28456;BME280;15682;56.742;38.866;2023-07-31T06:13:46;98700.0;;;19.9;73.8
28456;BME280;15682;56.742;38.866;2023-07-31T06:15:47;98700.0;;;20.0;73.8
28456;BME280;15682;56.742;38.866;2023-07-31T06:17:48;98700.0;;;20.1;73.8
28456;BME280;15682;56.742;38.866;2023-07-31T06:19:49;98700.0;;;20.1;73.1
28456;BME280;15682;56.742;38.866;2023-07-31T06:21:50;98700.0;;;20.2;72.9
28456;BME280;15682;56.742;38.866;2023-07-31T06:23:50;98700.0;;;20.2;72.4
28456;BME280;15682;56.742;38.866;2023-07-31T06:25:51;98700.0;;;20.2;73.1
28456;BME280;15682;56.742;38.866;2023-07-31T06:27:52;98700.0;;;20.4;73.1
28456;BME280;15682;56.742;38.866;2023-07-31T06:29:53;98700.0;;;20.6;73.1
28456;BME280;15682;56.742;38.866;2023-07-31T06:31:54;98700.0;;;20.6;72.8
28456;BME280;15682;56.742;38.866;2023-07-31T06:33:55;98700.0;;;20.6;72.8
28456;BME280;15682;56.742;38.866;2023-07-31T06:35:56;98700.0;;;20.7;72.1
28456;BME280;15682;56.742;38.866;2023-07-31T06:37:57;98700.0;;;20.7;72.1
28456;BME280;15682;56.742;38.866;2023-07-31T06:39:58;98700.0;;;20.6;72.1
28456;BME280;15682;56.742;38.866;2023-07-31T06:41:59;98700.0;;;20.7;71.1
28456;BME280;15682;56.742;38.866;2023-07-31T06:44:00;98700.0;;;20.9;70.5
28456;BME280;15682;56.742;38.866;2023-07-31T06:46:04;98700.0;;;20.9;70.2
28456;BME280;15682;56.742;38.866;2023-07-31T06:48:02;98700.0;;;21.0;70.9
28456;BME280;15682;56.742;38.866;2023-07-31T06:50:03;98700.0;;;21.0;69.7
28456;BME280;15682;56.742;38.866;2023-07-31T06:52:04;98700.0;;;21.0;68.1
28456;BME280;15682;56.742;38.866;2023-07-31T06:54:05;98700.0;;;21.0;68.1
28456;BME280;15682;56.742;38.866;2023-07-31T06:56:06;98700.0;;;21.0;68.1
28456;BME280;15682;56.742;38.866;2023-07-31T06:58:06;98700.0;;;21.1;68.6
28456;BME280;15682;56.742;38.866;2023-07-31T07:00:09;98700.0;;;21.1;68.6
28456;BME280;15682;56.742;38.866;2023-07-31T07:02:08;98700.0;;;21.2;68.5
28456;BME280;15682;56.742;38.866;2023-07-31T07:04:09;98700.0;;;21.1;70.1
28456;BME280;15682;56.742;38.866;2023-07-31T07:06:11;98700.0;;;21.1;67.2
28456;BME280;15682;56.742;38.866;2023-07-31T07:08:11;98700.0;;;21.4;68.1
28456;BME280;15682;56.742;38.866;2023-07-31T07:10:12;98700.0;;;21.4;66.4
28456;BME280;15682;56.742;38.866;2023-07-31T07:12:13;98700.0;;;21.4;65.7
28456;BME280;15682;56.742;38.866;2023-07-31T07:14:14;98700.0;;;21.3;65.7
28456;BME280;15682;56.742;38.866;2023-07-31T07:16:15;98700.0;;;21.3;66.8
28456;BME280;15682;56.742;38.866;2023-07-31T07:18:16;98710.0;;;21.3;66.8
28456;BME280;15682;56.742;38.866;2023-07-31T07:20:17;98710.0;;;21.7;66.1
28456;BME280;15682;56.742;38.866;2023-07-31T07:22:18;98720.0;;;21.7;65.5
28456;BME280;15682;56.742;38.866;2023-07-31T07:24:19;98720.0;;;21.7;64.6
28456;BME280;15682;56.742;38.866;2023-07-31T07:26:20;98720.0;;;21.7;64.6
28456;BME280;15682;56.742;38.866;2023-07-31T07:28:21;98720.0;;;21.5;65.7
28456;BME280;15682;56.742;38.866;2023-07-31T07:30:21;98720.0;;;21.5;65.7
28456;BME280;15682;56.742;38.866;2023-07-31T07:32:22;98720.0;;;21.5;66.6
28456;BME280;15682;56.742;38.866;2023-07-31T07:34:25;98720.0;;;21.8;66.6
28456;BME280;15682;56.742;38.866;2023-07-31T07:36:24;98720.0;;;21.8;65.0
28456;BME280;15682;56.742;38.866;2023-07-31T07:38:25;98720.0;;;21.9;64.5
28456;BME280;15682;56.742;38.866;2023-07-31T07:40:26;98720.0;;;22.0;64.5
28456;BME280;15682;56.742;38.866;2023-07-31T07:42:26;98720.0;;;22.0;63.9
28456;BME280;15682;56.742;38.866;2023-07-31T07:44:27;98720.0;;;22.0;63.1
28456;BME280;15682;56.742;38.866;2023-07-31T07:46:28;98720.0;;;22.0;63.2
28456;BME280;15682;56.742;38.866;2023-07-31T07:48:28;98720.0;;;22.0;63.2
28456;BME280;15682;56.742;38.866;2023-07-31T07:50:29;98720.0;;;22.0;62.5
28456;BME280;15682;56.742;38.866;2023-07-31T07:52:30;98720.0;;;22.1;63.2
28456;BME280;15682;56.742;38.866;2023-07-31T07:54:30;98720.0;;;22.3;63.2
28456;BME280;15682;56.742;38.866;2023-07-31T07:56:32;98730.0;;;22.3;62.6
28456;BME280;15682;56.742;38.866;2023-07-31T07:58:32;98730.0;;;22.3;64.0
28456;BME280;15682;56.742;38.866;2023-07-31T08:00:32;98730.0;;;22.4;63.3
28456;BME280;15682;56.742;38.866;2023-07-31T08:02:33;98730.0;;;22.4;62.0
28456;BME280;15682;56.742;38.866;2023-07-31T08:04:34;98730.0;;;22.6;62.0
28456;BME280;15682;56.742;38.866;2023-07-31T08:06:34;98730.0;;;22.6;62.0
28456;BME280;15682;56.742;38.866;2023-07-31T08:08:35;98730.0;;;22.7;62.7
28456;BME280;15682;56.742;38.866;2023-07-31T08:10:35;98730.0;;;22.6;61.8
28456;BME280;15682;56.742;38.866;2023-07-31T08:12:36;98730.0;;;22.7;62.5
28456;BME280;15682;56.742;38.866;2023-07-31T08:14:36;98730.0;;;22.9;62.5
28456;BME280;15682;56.742;38.866;2023-07-31T08:16:38;98730.0;;;23.1;61.9
28456;BME280;15682;56.742;38.866;2023-07-31T08:18:38;98730.0;;;23.1;63.2
28456;BME280;15682;56.742;38.866;2023-07-31T08:20:38;98730.0;;;23.1;62.3
28456;BME280;15682;56.742;38.866;2023-07-31T08:22:39;98730.0;;;23.2;61.8
28456;BME280;15682;56.742;38.866;2023-07-31T08:24:39;98730.0;;;23.2;61.8
28456;BME280;15682;56.742;38.866;2023-07-31T08:26:40;98730.0;;;23.5;63.4
28456;BME280;15682;56.742;38.866;2023-07-31T08:28:40;98730.0;;;23.8;61.0
28456;BME280;15682;56.742;38.866;2023-07-31T08:30:41;98730.0;;;24.0;61.8
28456;BME280;15682;56.742;38.866;2023-07-31T08:32:42;98730.0;;;23.9;61.8
28456;BME280;15682;56.742;38.866;2023-07-31T08:34:42;98730.0;;;23.8;60.2
28456;BME280;15682;56.742;38.866;2023-07-31T08:36:43;98730.0;;;23.9;61.3
28456;BME280;15682;56.742;38.866;2023-07-31T08:38:45;98730.0;;;23.8;61.3
28456;BME280;15682;56.742;38.866;2023-07-31T08:40:44;98730.0;;;24.2;61.7
28456;BME280;15682;56.742;38.866;2023-07-31T08:42:45;98730.0;;;24.3;59.9
28456;BME280;15682;56.742;38.866;2023-07-31T08:44:46;98730.0;;;24.8;60.7
28456;BME280;15682;56.742;38.866;2023-07-31T08:46:46;98730.0;;;25.1;59.0
28456;BME280;15682;56.742;38.866;2023-07-31T08:48:46;98730.0;;;25.1;59.1
28456;BME280;15682;56.742;38.866;2023-07-31T08:50:47;98730.0;;;25.0;59.8
28456;BME280;15682;56.742;38.866;2023-07-31T08:52:48;98730.0;;;24.8;61.1
28456;BME280;15682;56.742;38.866;2023-07-31T08:54:48;98750.0;;;24.7;61.1
28456;BME280;15682;56.742;38.866;2023-07-31T08:56:50;98750.0;;;24.7;60.0
28456;BME280;15682;56.742;38.866;2023-07-31T08:58:49;98750.0;;;24.8;60.9
28456;BME280;15682;56.742;38.866;2023-07-31T09:00:50;98750.0;;;24.8;62.5
28456;BME280;15682;56.742;38.866;2023-07-31T09:02:54;98750.0;;;24.8;62.5
28456;BME280;15682;56.742;38.866;2023-07-31T09:04:51;98750.0;;;24.8;63.1
28456;BME280;15682;56.742;38.866;2023-07-31T09:06:56;98750.0;;;24.9;62.5
28456;BME280;15682;56.742;38.866;2023-07-31T09:08:52;98750.0;;;25.2;63.1
28456;BME280;15682;56.742;38.866;2023-07-31T09:10:52;98750.0;;;25.2;62.2
28456;BME280;15682;56.742;38.866;2023-07-31T09:12:53;98750.0;;;25.4;61.6
28456;BME280;15682;56.742;38.866;2023-07-31T09:14:54;98750.0;;;25.4;62.1
28456;BME280;15682;56.742;38.866;2023-07-31T09:16:55;98750.0;;;25.7;62.1
28456;BME280;15682;56.742;38.866;2023-07-31T09:18:55;98750.0;;;25.7;61.4
28456;BME280;15682;56.742;38.866;2023-07-31T09:21:03;98750.0;;;26.0;62.6
28456;BME280;15682;56.742;38.866;2023-07-31T09:22:57;98750.0;;;25.9;61.9
28456;BME280;15682;56.742;38.866;2023-07-31T09:25:07;98750.0;;;26.1;61.9
28456;BME280;15682;56.742;38.866;2023-07-31T09:26:58;98750.0;;;26.0;61.9
28456;BME280;15682;56.742;38.866;2023-07-31T09:28:58;98750.0;;;25.9;61.9
28456;BME280;15682;56.742;38.866;2023-07-31T09:30:58;98750.0;;;26.1;62.8
28456;BME280;15682;56.742;38.866;2023-07-31T09:33:02;98750.0;;;25.7;63.9
28456;BME280;15682;56.742;38.866;2023-07-31T09:34:59;98750.0;;;25.4;64.5
28456;BME280;15682;56.742;38.866;2023-07-31T09:37:01;98740.0;;;25.8;65.1
28456;BME280;15682;56.742;38.866;2023-07-31T09:39:02;98740.0;;;25.6;63.0
28456;BME280;15682;56.742;38.866;2023-07-31T09:41:01;98740.0;;;25.7;64.4
28456;BME280;15682;56.742;38.866;2023-07-31T09:43:03;98740.0;;;25.7;64.4
28456;BME280;15682;56.742;38.866;2023-07-31T09:45:10;98740.0;;;25.7;63.6
28456;BME280;15682;56.742;38.866;2023-07-31T09:47:03;98740.0;;;25.6;63.7
28456;BME280;15682;56.742;38.866;2023-07-31T09:49:05;98740.0;;;25.3;64.4
28456;BME280;15682;56.742;38.866;2023-07-31T09:51:04;98740.0;;;25.3;64.2
28456;BME280;15682;56.742;38.866;2023-07-31T09:53:06;98740.0;;;25.5;63.3
28456;BME280;15682;56.742;38.866;2023-07-31T09:55:06;98740.0;;;25.6;63.3
28456;BME280;15682;56.742;38.866;2023-07-31T09:57:06;98740.0;;;25.5;64.8
28456;BME280;15682;56.742;38.866;2023-07-31T09:59:08;98740.0;;;25.3;65.5
28456;BME280;15682;56.742;38.866;2023-07-31T10:01:07;98750.0;;;25.1;66.1
28456;BME280;15682;56.742;38.866;2023-07-31T10:03:09;98750.0;;;25.0;65.0
28456;BME280;15682;56.742;38.866;2023-07-31T10:05:08;98750.0;;;25.1;65.0
28456;BME280;15682;56.742;38.866;2023-07-31T10:07:08;98750.0;;;25.1;64.3
28456;BME280;15682;56.742;38.866;2023-07-31T10:09:11;98750.0;;;25.1;63.8
28456;BME280;15682;56.742;38.866;2023-07-31T10:11:10;98750.0;;;25.1;64.0
28456;BME280;15682;56.742;38.866;2023-07-31T10:13:12;98750.0;;;25.0;64.0
28456;BME280;15682;56.742;38.866;2023-07-31T10:15:11;98750.0;;;25.4;63.4
28456;BME280;15682;56.742;38.866;2023-07-31T10:17:11;98750.0;;;25.5;64.3
28456;BME280;15682;56.742;38.866;2023-07-31T10:19:12;98750.0;;;25.5;64.3
28456;BME280;15682;56.742;38.866;2023-07-31T10:21:13;98750.0;;;25.4;64.0
28456;BME280;15682;56.742;38.866;2023-07-31T10:23:13;98750.0;;;25.4;64.9
28456;BME280;15682;56.742;38.866;2023-07-31T10:25:15;98750.0;;;25.4;63.2
28456;BME280;15682;56.742;38.866;2023-07-31T10:27:14;98750.0;;;25.4;63.8
28456;BME280;15682;56.742;38.866;2023-07-31T10:29:15;98750.0;;;25.1;63.8
28456;BME280;15682;56.742;38.866;2023-07-31T10:31:16;98750.0;;;25.0;62.8
28456;BME280;15682;56.742;38.866;2023-07-31T10:33:16;98750.0;;;25.0;64.1
28456;BME280;15682;56.742;38.866;2023-07-31T10:35:17;98750.0;;;25.1;63.6
28456;BME280;15682;56.742;38.866;2023-07-31T10:37:21;98750.0;;;25.1;63.6
28456;BME280;15682;56.742;38.866;2023-07-31T10:39:33;98750.0;;;25.5;64.0
28456;BME280;15682;56.742;38.866;2023-07-31T10:41:18;98750.0;;;25.2;62.6
28456;BME280;15682;56.742;38.866;2023-07-31T10:43:26;98750.0;;;25.4;62.6
28456;BME280;15682;56.742;38.866;2023-07-31T10:45:32;98750.0;;;25.6;63.5
28456;BME280;15682;56.742;38.866;2023-07-31T10:47:20;98750.0;;;25.2;63.5
28456;BME280;15682;56.742;38.866;2023-07-31T10:49:21;98750.0;;;25.2;62.5
28456;BME280;15682;56.742;38.866;2023-07-31T10:51:21;98750.0;;;25.2;63.1
28456;BME280;15682;56.742;38.866;2023-07-31T10:53:23;98750.0;;;25.3;64.2
28456;BME280;15682;56.742;38.866;2023-07-31T10:55:26;98750.0;;;25.6;63.7